sensor_id;sensor_type;location;lat;lon;timestamp;temperature;humidity
4934;DHT22;2482;49.154;8.254;2023-06-04T00:02:23;14.70;99.90
4934;DHT22;2482;49.154;8.254;2023-06-04T00:04:51;14.60;99.90
4934;DHT22;2482;49.154;8.254;2023-06-04T00:07:18;14.50;99.90
4934;DHT22;2482;49.154;8.254;2023-06-04T00:09:45;14.60;99.90
4934;DHT22;2482;49.154;8.254;2023-06-04T00:12:14;14.50;99.90
4934;DHT22;2482;49.154;8.254;2023-06-04T00:14:42;14.40;99.90
4934;DHT22;2482;49.154;8.254;2023-06-04T00:17:09;14.30;99.90
4934;DHT22;2482;49.154;8.254;2023-06-04T00:19:40;14.30;99.90
4934;DHT22;2482;49.154;8.254;2023-06-04T00:22:08;14.20;99.90
4934;DHT22;2482;49.154;8.254;2023-06-04T00:24:36;14.20;99.90
4934;DHT22;2482;49.154;8.254;2023-06-04T00:27:05;14.10;99.90
4934;DHT22;2482;49.154;8.254;2023-06-04T00:29:35;14.20;99.90
4934;DHT22;2482;49.154;8.254;2023-06-04T00:32:03;14.30;99.90
4934;DHT22;2482;49.154;8.254;2023-06-04T00:34:30;14.10;99.90
4934;DHT22;2482;49.154;8.254;2023-06-04T00:36:57;14.10;99.90
4934;DHT22;2482;49.154;8.254;2023-06-04T00:39:24;14.10;99.90
4934;DHT22;2482;49.154;8.254;2023-06-04T00:41:51;14.20;99.90
4934;DHT22;2482;49.154;8.254;2023-06-04T00:44:18;14.10;99.90
4934;DHT22;2482;49.154;8.254;2023-06-04T00:46:48;13.90;99.90
4934;DHT22;2482;49.154;8.254;2023-06-04T00:49:16;13.80;99.90
4934;DHT22;2482;49.154;8.254;2023-06-04T00:51:43;13.70;99.90
4934;DHT22;2482;49.154;8.254;2023-06-04T00:54:11;13.80;99.90
4934;DHT22;2482;49.154;8.254;2023-06-04T00:56:39;13.90;99.90
4934;DHT22;2482;49.154;8.254;2023-06-04T00:59:08;13.80;99.90
4934;DHT22;2482;49.154;8.254;2023-06-04T01:02:14;13.90;99.90
4934;DHT22;2482;49.154;8.254;2023-06-04T01:05:02;13.60;99.90
4934;DHT22;2482;49.154;8.254;2023-06-04T01:07:30;13.40;99.90
4934;DHT22;2482;49.154;8.254;2023-06-04T01:09:57;13.20;99.90
4934;DHT22;2482;49.154;8.254;2023-06-04T01:12:24;13.30;99.90
4934;DHT22;2482;49.154;8.254;2023-06-04T01:14:51;13.20;99.90
4934;DHT22;2482;49.154;8.254;2023-06-04T01:17:23;13.20;99.90
4934;DHT22;2482;49.154;8.254;2023-06-04T01:28:08;13.20;99.90
4934;DHT22;2482;49.154;8.254;2023-06-04T01:30:43;13.20;99.90
4934;DHT22;2482;49.154;8.254;2023-06-04T01:33:18;13.10;99.90
4934;DHT22;2482;49.154;8.254;2023-06-04T01:35:45;13.10;99.90
4934;DHT22;2482;49.154;8.254;2023-06-04T01:38:13;12.90;99.90
4934;DHT22;2482;49.154;8.254;2023-06-04T01:40:40;12.90;99.90
4934;DHT22;2482;49.154;8.254;2023-06-04T01:43:08;12.90;99.90
4934;DHT22;2482;49.154;8.254;2023-06-04T01:45:35;12.90;99.90
4934;DHT22;2482;49.154;8.254;2023-06-04T01:48:03;12.80;99.90
4934;DHT22;2482;49.154;8.254;2023-06-04T01:50:31;12.90;99.90
4934;DHT22;2482;49.154;8.254;2023-06-04T01:52:59;12.80;99.90
4934;DHT22;2482;49.154;8.254;2023-06-04T01:55:26;12.90;99.90
4934;DHT22;2482;49.154;8.254;2023-06-04T01:57:56;12.80;99.90
4934;DHT22;2482;49.154;8.254;2023-06-04T02:00:23;12.80;99.90
4934;DHT22;2482;49.154;8.254;2023-06-04T02:02:50;12.80;99.90
4934;DHT22;2482;49.154;8.254;2023-06-04T02:05:17;12.50;99.90
4934;DHT22;2482;49.154;8.254;2023-06-04T02:07:45;12.60;99.90
4934;DHT22;2482;49.154;8.254;2023-06-04T02:10:17;12.60;99.90
4934;DHT22;2482;49.154;8.254;2023-06-04T02:15:27;12.40;99.90
4934;DHT22;2482;49.154;8.254;2023-06-04T02:17:58;12.40;99.90
4934;DHT22;2482;49.154;8.254;2023-06-04T02:20:39;12.30;99.90
4934;DHT22;2482;49.154;8.254;2023-06-04T02:23:06;12.20;99.90
4934;DHT22;2482;49.154;8.254;2023-06-04T02:25:33;12.40;99.90
4934;DHT22;2482;49.154;8.254;2023-06-04T02:28:00;12.30;99.90
4934;DHT22;2482;49.154;8.254;2023-06-04T02:30:27;12.30;99.90
4934;DHT22;2482;49.154;8.254;2023-06-04T02:32:54;12.30;99.90
4934;DHT22;2482;49.154;8.254;2023-06-04T02:35:22;12.20;99.90
4934;DHT22;2482;49.154;8.254;2023-06-04T02:37:50;12.10;99.90
4934;DHT22;2482;49.154;8.254;2023-06-04T02:40:17;12.00;99.90
4934;DHT22;2482;49.154;8.254;2023-06-04T02:42:44;12.10;99.90
4934;DHT22;2482;49.154;8.254;2023-06-04T02:45:11;12.20;99.90
4934;DHT22;2482;49.154;8.254;2023-06-04T02:47:38;12.30;99.90
4934;DHT22;2482;49.154;8.254;2023-06-04T02:50:06;12.30;99.90
4934;DHT22;2482;49.154;8.254;2023-06-04T02:52:33;12.30;99.90
4934;DHT22;2482;49.154;8.254;2023-06-04T02:55:06;12.50;99.90
4934;DHT22;2482;49.154;8.254;2023-06-04T02:57:35;12.40;99.90
4934;DHT22;2482;49.154;8.254;2023-06-04T03:00:03;12.30;99.90
4934;DHT22;2482;49.154;8.254;2023-06-04T03:02:49;12.30;99.90
4934;DHT22;2482;49.154;8.254;2023-06-04T03:05:17;12.40;99.90
4934;DHT22;2482;49.154;8.254;2023-06-04T03:07:46;12.10;99.90
4934;DHT22;2482;49.154;8.254;2023-06-04T03:10:15;12.20;99.90
4934;DHT22;2482;49.154;8.254;2023-06-04T03:12:43;12.00;99.90
4934;DHT22;2482;49.154;8.254;2023-06-04T03:15:11;12.10;99.90
4934;DHT22;2482;49.154;8.254;2023-06-04T03:17:38;12.00;99.90
4934;DHT22;2482;49.154;8.254;2023-06-04T03:20:06;12.00;99.90
4934;DHT22;2482;49.154;8.254;2023-06-04T03:22:34;12.00;99.90
4934;DHT22;2482;49.154;8.254;2023-06-04T03:25:03;12.10;99.90
4934;DHT22;2482;49.154;8.254;2023-06-04T03:27:32;12.20;99.90
4934;DHT22;2482;49.154;8.254;2023-06-04T03:29:59;12.10;99.90
4934;DHT22;2482;49.154;8.254;2023-06-04T03:32:26;12.00;99.90
4934;DHT22;2482;49.154;8.254;2023-06-04T03:34:53;12.10;99.90
4934;DHT22;2482;49.154;8.254;2023-06-04T03:37:20;12.20;99.90
4934;DHT22;2482;49.154;8.254;2023-06-04T03:39:47;12.20;99.90
4934;DHT22;2482;49.154;8.254;2023-06-04T03:42:14;12.00;99.90
4934;DHT22;2482;49.154;8.254;2023-06-04T03:44:41;12.10;99.90
4934;DHT22;2482;49.154;8.254;2023-06-04T03:47:08;12.00;99.90
4934;DHT22;2482;49.154;8.254;2023-06-04T03:49:36;11.90;99.90
4934;DHT22;2482;49.154;8.254;2023-06-04T03:52:03;11.80;99.90
4934;DHT22;2482;49.154;8.254;2023-06-04T03:54:30;12.10;99.90
4934;DHT22;2482;49.154;8.254;2023-06-04T03:56:57;12.10;99.90
4934;DHT22;2482;49.154;8.254;2023-06-04T03:59:24;12.00;99.90
4934;DHT22;2482;49.154;8.254;2023-06-04T04:01:51;11.90;99.90
4934;DHT22;2482;49.154;8.254;2023-06-04T04:04:18;12.10;99.90
4934;DHT22;2482;49.154;8.254;2023-06-04T04:06:45;12.30;99.90
4934;DHT22;2482;49.154;8.254;2023-06-04T04:09:12;12.20;99.90
4934;DHT22;2482;49.154;8.254;2023-06-04T04:11:39;12.10;99.90
4934;DHT22;2482;49.154;8.254;2023-06-04T04:14:06;12.20;99.90
4934;DHT22;2482;49.154;8.254;2023-06-04T04:16:33;12.40;99.90
4934;DHT22;2482;49.154;8.254;2023-06-04T04:19:00;12.40;99.90
4934;DHT22;2482;49.154;8.254;2023-06-04T04:21:27;12.30;99.90
4934;DHT22;2482;49.154;8.254;2023-06-04T04:23:54;12.50;99.90
4934;DHT22;2482;49.154;8.254;2023-06-04T04:26:22;12.60;99.90
4934;DHT22;2482;49.154;8.254;2023-06-04T04:28:55;12.80;99.90
4934;DHT22;2482;49.154;8.254;2023-06-04T04:31:27;13.10;99.90
4934;DHT22;2482;49.154;8.254;2023-06-04T04:33:55;13.10;99.90
4934;DHT22;2482;49.154;8.254;2023-06-04T04:36:22;13.30;99.90
4934;DHT22;2482;49.154;8.254;2023-06-04T04:38:50;13.30;99.90
4934;DHT22;2482;49.154;8.254;2023-06-04T04:41:21;13.30;99.90
4934;DHT22;2482;49.154;8.254;2023-06-04T04:43:52;13.30;99.90
4934;DHT22;2482;49.154;8.254;2023-06-04T04:46:19;13.40;99.90
4934;DHT22;2482;49.154;8.254;2023-06-04T04:48:47;13.70;99.90
4934;DHT22;2482;49.154;8.254;2023-06-04T04:51:13;13.70;99.90
4934;DHT22;2482;49.154;8.254;2023-06-04T04:53:41;13.80;99.90
4934;DHT22;2482;49.154;8.254;2023-06-04T04:56:08;13.80;99.90
4934;DHT22;2482;49.154;8.254;2023-06-04T04:58:35;13.90;99.90
4934;DHT22;2482;49.154;8.254;2023-06-04T05:01:02;13.80;99.90
4934;DHT22;2482;49.154;8.254;2023-06-04T05:03:29;13.80;99.90
4934;DHT22;2482;49.154;8.254;2023-06-04T05:05:56;13.70;99.90
4934;DHT22;2482;49.154;8.254;2023-06-04T05:08:23;13.70;99.90
4934;DHT22;2482;49.154;8.254;2023-06-04T05:10:50;13.70;99.90
4934;DHT22;2482;49.154;8.254;2023-06-04T05:13:18;13.50;99.90
4934;DHT22;2482;49.154;8.254;2023-06-04T05:15:45;13.50;99.90
4934;DHT22;2482;49.154;8.254;2023-06-04T05:18:14;13.60;99.90
4934;DHT22;2482;49.154;8.254;2023-06-04T05:20:43;13.50;99.90
4934;DHT22;2482;49.154;8.254;2023-06-04T05:23:10;13.50;99.90
4934;DHT22;2482;49.154;8.254;2023-06-04T05:25:39;13.60;99.90
4934;DHT22;2482;49.154;8.254;2023-06-04T05:28:07;13.40;99.90
4934;DHT22;2482;49.154;8.254;2023-06-04T05:30:34;13.60;99.90
4934;DHT22;2482;49.154;8.254;2023-06-04T05:33:01;14.00;99.90
4934;DHT22;2482;49.154;8.254;2023-06-04T05:35:28;14.30;99.90
4934;DHT22;2482;49.154;8.254;2023-06-04T05:37:55;14.50;99.90
4934;DHT22;2482;49.154;8.254;2023-06-04T05:40:22;14.70;99.90
4934;DHT22;2482;49.154;8.254;2023-06-04T05:42:49;14.90;99.90
4934;DHT22;2482;49.154;8.254;2023-06-04T05:45:16;15.10;99.90
4934;DHT22;2482;49.154;8.254;2023-06-04T05:47:43;15.20;99.90
4934;DHT22;2482;49.154;8.254;2023-06-04T05:50:10;15.30;99.90
4934;DHT22;2482;49.154;8.254;2023-06-04T05:52:37;15.40;99.90
4934;DHT22;2482;49.154;8.254;2023-06-04T05:55:05;15.50;99.90
4934;DHT22;2482;49.154;8.254;2023-06-04T05:57:34;15.50;99.90
4934;DHT22;2482;49.154;8.254;2023-06-04T06:00:02;15.70;99.90
4934;DHT22;2482;49.154;8.254;2023-06-04T06:02:35;15.90;99.90
4934;DHT22;2482;49.154;8.254;2023-06-04T06:05:02;15.90;99.90
4934;DHT22;2482;49.154;8.254;2023-06-04T06:07:29;16.00;99.90
4934;DHT22;2482;49.154;8.254;2023-06-04T06:09:57;16.10;99.90
4934;DHT22;2482;49.154;8.254;2023-06-04T06:12:24;16.10;99.90
4934;DHT22;2482;49.154;8.254;2023-06-04T06:14:51;16.20;99.90
4934;DHT22;2482;49.154;8.254;2023-06-04T06:17:18;16.20;99.90
4934;DHT22;2482;49.154;8.254;2023-06-04T06:19:46;16.20;99.90
4934;DHT22;2482;49.154;8.254;2023-06-04T06:22:12;16.30;99.90
4934;DHT22;2482;49.154;8.254;2023-06-04T06:24:40;16.40;99.90
4934;DHT22;2482;49.154;8.254;2023-06-04T06:27:07;16.40;99.90
4934;DHT22;2482;49.154;8.254;2023-06-04T06:29:35;16.50;99.90
4934;DHT22;2482;49.154;8.254;2023-06-04T06:32:02;16.70;99.90
4934;DHT22;2482;49.154;8.254;2023-06-04T06:34:29;16.80;99.90
4934;DHT22;2482;49.154;8.254;2023-06-04T06:36:57;17.00;99.90
4934;DHT22;2482;49.154;8.254;2023-06-04T06:39:24;17.20;99.90
4934;DHT22;2482;49.154;8.254;2023-06-04T06:41:51;17.20;99.90
4934;DHT22;2482;49.154;8.254;2023-06-04T06:44:18;17.30;99.90
4934;DHT22;2482;49.154;8.254;2023-06-04T06:46:45;17.10;99.90
4934;DHT22;2482;49.154;8.254;2023-06-04T06:49:15;17.20;99.90
4934;DHT22;2482;49.154;8.254;2023-06-04T06:51:42;17.20;99.90
4934;DHT22;2482;49.154;8.254;2023-06-04T06:54:09;17.30;99.90
4934;DHT22;2482;49.154;8.254;2023-06-04T06:56:37;17.40;99.90
4934;DHT22;2482;49.154;8.254;2023-06-04T06:59:04;17.80;99.90
4934;DHT22;2482;49.154;8.254;2023-06-04T07:01:31;18.00;99.90
4934;DHT22;2482;49.154;8.254;2023-06-04T07:04:00;18.10;99.90
4934;DHT22;2482;49.154;8.254;2023-06-04T07:06:27;18.10;99.90
4934;DHT22;2482;49.154;8.254;2023-06-04T07:08:55;18.00;99.90
4934;DHT22;2482;49.154;8.254;2023-06-04T07:11:22;18.10;99.90
4934;DHT22;2482;49.154;8.254;2023-06-04T07:13:49;18.10;99.90
4934;DHT22;2482;49.154;8.254;2023-06-04T07:16:16;18.30;99.90
4934;DHT22;2482;49.154;8.254;2023-06-04T07:18:47;18.70;99.90
4934;DHT22;2482;49.154;8.254;2023-06-04T07:21:16;18.80;99.90
4934;DHT22;2482;49.154;8.254;2023-06-04T07:23:45;18.70;99.90
4934;DHT22;2482;49.154;8.254;2023-06-04T07:26:16;18.50;99.90
4934;DHT22;2482;49.154;8.254;2023-06-04T07:28:44;18.40;99.90
4934;DHT22;2482;49.154;8.254;2023-06-04T07:31:15;18.80;99.90
4934;DHT22;2482;49.154;8.254;2023-06-04T07:33:43;19.20;99.90
4934;DHT22;2482;49.154;8.254;2023-06-04T07:36:13;19.00;99.90
4934;DHT22;2482;49.154;8.254;2023-06-04T07:38:40;18.90;99.90
4934;DHT22;2482;49.154;8.254;2023-06-04T07:41:07;18.80;99.90
4934;DHT22;2482;49.154;8.254;2023-06-04T07:43:35;18.90;99.90
4934;DHT22;2482;49.154;8.254;2023-06-04T07:46:03;19.30;99.90
4934;DHT22;2482;49.154;8.254;2023-06-04T07:48:31;19.70;99.90
4934;DHT22;2482;49.154;8.254;2023-06-04T07:50:59;19.90;99.90
4934;DHT22;2482;49.154;8.254;2023-06-04T07:53:27;19.90;99.90
4934;DHT22;2482;49.154;8.254;2023-06-04T07:55:54;20.00;99.90
4934;DHT22;2482;49.154;8.254;2023-06-04T07:58:22;19.90;99.90
4934;DHT22;2482;49.154;8.254;2023-06-04T08:00:49;19.90;99.90
4934;DHT22;2482;49.154;8.254;2023-06-04T08:03:16;20.10;99.90
4934;DHT22;2482;49.154;8.254;2023-06-04T08:05:45;20.00;99.90
4934;DHT22;2482;49.154;8.254;2023-06-04T08:08:12;20.20;99.90
4934;DHT22;2482;49.154;8.254;2023-06-04T08:10:39;20.30;99.90
4934;DHT22;2482;49.154;8.254;2023-06-04T08:13:07;20.30;99.90
4934;DHT22;2482;49.154;8.254;2023-06-04T08:15:35;20.50;99.90
4934;DHT22;2482;49.154;8.254;2023-06-04T08:18:02;20.60;99.90
4934;DHT22;2482;49.154;8.254;2023-06-04T08:20:29;20.60;99.90
4934;DHT22;2482;49.154;8.254;2023-06-04T08:22:56;20.60;99.90
4934;DHT22;2482;49.154;8.254;2023-06-04T08:25:23;20.80;99.90
4934;DHT22;2482;49.154;8.254;2023-06-04T08:27:50;20.80;99.90
4934;DHT22;2482;49.154;8.254;2023-06-04T08:30:17;20.70;99.90
4934;DHT22;2482;49.154;8.254;2023-06-04T08:32:44;20.70;99.90
4934;DHT22;2482;49.154;8.254;2023-06-04T08:35:11;20.90;99.90
4934;DHT22;2482;49.154;8.254;2023-06-04T08:37:39;21.30;99.90
4934;DHT22;2482;49.154;8.254;2023-06-04T08:40:07;21.50;99.90
4934;DHT22;2482;49.154;8.254;2023-06-04T08:42:43;21.50;99.90
4934;DHT22;2482;49.154;8.254;2023-06-04T08:45:12;21.80;99.90
4934;DHT22;2482;49.154;8.254;2023-06-04T08:47:44;21.90;99.90
4934;DHT22;2482;49.154;8.254;2023-06-04T08:50:18;21.90;99.90
4934;DHT22;2482;49.154;8.254;2023-06-04T08:52:47;22.00;99.90
4934;DHT22;2482;49.154;8.254;2023-06-04T08:55:14;22.00;99.90
4934;DHT22;2482;49.154;8.254;2023-06-04T08:57:41;21.70;99.00
4934;DHT22;2482;49.154;8.254;2023-06-04T09:00:09;21.80;99.90
4934;DHT22;2482;49.154;8.254;2023-06-04T09:02:37;21.90;99.70
4934;DHT22;2482;49.154;8.254;2023-06-04T09:05:05;22.20;99.90
4934;DHT22;2482;49.154;8.254;2023-06-04T09:07:38;22.40;99.90
4934;DHT22;2482;49.154;8.254;2023-06-04T09:10:07;22.90;99.90
4934;DHT22;2482;49.154;8.254;2023-06-04T09:12:43;23.20;99.90
4934;DHT22;2482;49.154;8.254;2023-06-04T09:15:13;23.10;98.80
4934;DHT22;2482;49.154;8.254;2023-06-04T09:17:40;22.90;99.90
4934;DHT22;2482;49.154;8.254;2023-06-04T09:20:08;22.90;99.50
4934;DHT22;2482;49.154;8.254;2023-06-04T09:22:45;22.80;99.90
4934;DHT22;2482;49.154;8.254;2023-06-04T09:25:26;22.70;98.50
4934;DHT22;2482;49.154;8.254;2023-06-04T09:27:54;22.80;99.40
4934;DHT22;2482;49.154;8.254;2023-06-04T09:30:23;23.10;99.20
4934;DHT22;2482;49.154;8.254;2023-06-04T09:32:50;23.40;99.20
4934;DHT22;2482;49.154;8.254;2023-06-04T09:35:20;23.40;98.60
4934;DHT22;2482;49.154;8.254;2023-06-04T09:37:56;23.10;97.30
4934;DHT22;2482;49.154;8.254;2023-06-04T09:40:24;23.20;98.80
4934;DHT22;2482;49.154;8.254;2023-06-04T09:42:51;23.40;97.70
4934;DHT22;2482;49.154;8.254;2023-06-04T09:45:29;23.90;97.10
4934;DHT22;2482;49.154;8.254;2023-06-04T09:48:02;24.00;98.20
4934;DHT22;2482;49.154;8.254;2023-06-04T09:50:34;23.60;96.20
4934;DHT22;2482;49.154;8.254;2023-06-04T09:53:15;23.60;94.90
4934;DHT22;2482;49.154;8.254;2023-06-04T09:55:44;23.70;95.30
4934;DHT22;2482;49.154;8.254;2023-06-04T09:58:11;23.90;95.20
4934;DHT22;2482;49.154;8.254;2023-06-04T10:00:39;24.30;94.90
4934;DHT22;2482;49.154;8.254;2023-06-04T10:03:11;24.30;93.60
4934;DHT22;2482;49.154;8.254;2023-06-04T10:05:41;24.20;93.50
4934;DHT22;2482;49.154;8.254;2023-06-04T10:08:09;23.90;93.90
4934;DHT22;2482;49.154;8.254;2023-06-04T10:10:38;24.20;94.10
4934;DHT22;2482;49.154;8.254;2023-06-04T10:13:14;24.30;93.10
4934;DHT22;2482;49.154;8.254;2023-06-04T10:15:45;24.00;91.60
4934;DHT22;2482;49.154;8.254;2023-06-04T10:18:14;23.90;92.10
4934;DHT22;2482;49.154;8.254;2023-06-04T10:20:42;24.00;91.10
4934;DHT22;2482;49.154;8.254;2023-06-04T10:23:09;24.10;90.60
4934;DHT22;2482;49.154;8.254;2023-06-04T10:25:37;24.40;90.50
4934;DHT22;2482;49.154;8.254;2023-06-04T10:28:04;24.70;91.50
4934;DHT22;2482;49.154;8.254;2023-06-04T10:30:31;24.70;91.50
4934;DHT22;2482;49.154;8.254;2023-06-04T10:32:59;24.90;89.60
4934;DHT22;2482;49.154;8.254;2023-06-04T10:35:34;25.00;86.30
4934;DHT22;2482;49.154;8.254;2023-06-04T10:38:12;25.00;90.10
4934;DHT22;2482;49.154;8.254;2023-06-04T10:40:40;25.30;88.50
4934;DHT22;2482;49.154;8.254;2023-06-04T10:43:09;25.20;85.70
4934;DHT22;2482;49.154;8.254;2023-06-04T10:45:38;25.30;84.80
4934;DHT22;2482;49.154;8.254;2023-06-04T10:48:08;25.60;85.30
4934;DHT22;2482;49.154;8.254;2023-06-04T10:50:48;25.30;84.70
4934;DHT22;2482;49.154;8.254;2023-06-04T10:53:18;25.20;84.20
4934;DHT22;2482;49.154;8.254;2023-06-04T10:55:49;25.10;83.00
4934;DHT22;2482;49.154;8.254;2023-06-04T10:58:16;25.40;81.30
4934;DHT22;2482;49.154;8.254;2023-06-04T11:00:45;25.30;85.70
4934;DHT22;2482;49.154;8.254;2023-06-04T11:03:16;24.90;81.80
4934;DHT22;2482;49.154;8.254;2023-06-04T11:05:45;25.20;90.10
4934;DHT22;2482;49.154;8.254;2023-06-04T11:08:13;25.20;82.20
4934;DHT22;2482;49.154;8.254;2023-06-04T11:10:43;25.60;80.70
4934;DHT22;2482;49.154;8.254;2023-06-04T11:13:11;25.60;81.90
4934;DHT22;2482;49.154;8.254;2023-06-04T11:15:45;25.40;83.90
4934;DHT22;2482;49.154;8.254;2023-06-04T11:18:20;25.40;80.60
4934;DHT22;2482;49.154;8.254;2023-06-04T11:20:49;24.90;80.90
4934;DHT22;2482;49.154;8.254;2023-06-04T11:23:17;25.20;83.20
4934;DHT22;2482;49.154;8.254;2023-06-04T11:25:44;25.10;82.90
4934;DHT22;2482;49.154;8.254;2023-06-04T11:28:16;25.20;79.70
4934;DHT22;2482;49.154;8.254;2023-06-04T11:31:02;25.20;79.90
4934;DHT22;2482;49.154;8.254;2023-06-04T11:33:40;25.20;79.00
4934;DHT22;2482;49.154;8.254;2023-06-04T11:36:09;25.40;79.60
4934;DHT22;2482;49.154;8.254;2023-06-04T11:38:37;25.50;81.60
4934;DHT22;2482;49.154;8.254;2023-06-04T11:41:04;25.60;79.40
4934;DHT22;2482;49.154;8.254;2023-06-04T11:43:32;25.50;79.60
4934;DHT22;2482;49.154;8.254;2023-06-04T11:46:05;25.40;76.30
4934;DHT22;2482;49.154;8.254;2023-06-04T11:48:37;25.70;74.30
4934;DHT22;2482;49.154;8.254;2023-06-04T11:51:07;25.70;77.80
4934;DHT22;2482;49.154;8.254;2023-06-04T11:53:37;25.70;78.80
4934;DHT22;2482;49.154;8.254;2023-06-04T11:56:05;25.80;79.40
4934;DHT22;2482;49.154;8.254;2023-06-04T11:58:33;25.90;78.70
4934;DHT22;2482;49.154;8.254;2023-06-04T12:01:00;26.20;78.20
4934;DHT22;2482;49.154;8.254;2023-06-04T12:03:37;26.20;79.10
4934;DHT22;2482;49.154;8.254;2023-06-04T12:06:16;26.50;79.90
4934;DHT22;2482;49.154;8.254;2023-06-04T12:11:40;25.90;76.10
4934;DHT22;2482;49.154;8.254;2023-06-04T12:14:16;25.80;77.30
4934;DHT22;2482;49.154;8.254;2023-06-04T12:17:05;26.10;75.60
4934;DHT22;2482;49.154;8.254;2023-06-04T12:19:47;26.10;83.40
4934;DHT22;2482;49.154;8.254;2023-06-04T12:22:15;26.30;78.50
4934;DHT22;2482;49.154;8.254;2023-06-04T12:24:51;26.80;77.30
4934;DHT22;2482;49.154;8.254;2023-06-04T12:27:24;27.00;79.30
4934;DHT22;2482;49.154;8.254;2023-06-04T12:32:29;26.30;77.40
4934;DHT22;2482;49.154;8.254;2023-06-04T12:34:57;26.10;76.20
4934;DHT22;2482;49.154;8.254;2023-06-04T12:37:24;25.90;72.60
4934;DHT22;2482;49.154;8.254;2023-06-04T12:39:54;26.10;77.80
4934;DHT22;2482;49.154;8.254;2023-06-04T12:42:22;26.20;77.20
4934;DHT22;2482;49.154;8.254;2023-06-04T12:44:50;26.40;75.40
4934;DHT22;2482;49.154;8.254;2023-06-04T12:47:17;26.40;75.90
4934;DHT22;2482;49.154;8.254;2023-06-04T12:49:44;26.30;78.00
4934;DHT22;2482;49.154;8.254;2023-06-04T12:52:12;26.40;76.90
4934;DHT22;2482;49.154;8.254;2023-06-04T12:54:42;26.80;74.10
4934;DHT22;2482;49.154;8.254;2023-06-04T12:57:09;26.90;72.40
4934;DHT22;2482;49.154;8.254;2023-06-04T12:59:36;26.90;77.60
4934;DHT22;2482;49.154;8.254;2023-06-04T13:02:03;26.90;75.20
4934;DHT22;2482;49.154;8.254;2023-06-04T13:04:31;26.70;74.40
4934;DHT22;2482;49.154;8.254;2023-06-04T13:06:57;26.70;76.40
4934;DHT22;2482;49.154;8.254;2023-06-04T13:09:26;26.30;75.50
4934;DHT22;2482;49.154;8.254;2023-06-04T13:11:57;26.10;72.50
4934;DHT22;2482;49.154;8.254;2023-06-04T13:14:24;26.20;77.10
4934;DHT22;2482;49.154;8.254;2023-06-04T13:16:51;26.30;78.30
4934;DHT22;2482;49.154;8.254;2023-06-04T13:19:18;26.40;77.60
4934;DHT22;2482;49.154;8.254;2023-06-04T13:21:49;26.10;72.20
4934;DHT22;2482;49.154;8.254;2023-06-04T13:24:16;26.20;74.90
4934;DHT22;2482;49.154;8.254;2023-06-04T13:26:43;26.20;74.00
4934;DHT22;2482;49.154;8.254;2023-06-04T13:29:10;26.10;73.20
4934;DHT22;2482;49.154;8.254;2023-06-04T13:31:38;26.40;73.40
4934;DHT22;2482;49.154;8.254;2023-06-04T13:34:06;26.70;77.30
4934;DHT22;2482;49.154;8.254;2023-06-04T13:36:53;27.00;75.90
4934;DHT22;2482;49.154;8.254;2023-06-04T13:39:20;27.10;72.30
4934;DHT22;2482;49.154;8.254;2023-06-04T13:41:47;26.60;73.10
4934;DHT22;2482;49.154;8.254;2023-06-04T13:44:14;26.40;70.80
4934;DHT22;2482;49.154;8.254;2023-06-04T13:46:42;26.50;71.10
4934;DHT22;2482;49.154;8.254;2023-06-04T13:49:09;26.80;73.90
4934;DHT22;2482;49.154;8.254;2023-06-04T13:51:36;27.00;73.40
4934;DHT22;2482;49.154;8.254;2023-06-04T13:54:03;27.10;70.20
4934;DHT22;2482;49.154;8.254;2023-06-04T13:56:30;27.30;74.00
4934;DHT22;2482;49.154;8.254;2023-06-04T13:58:57;27.10;73.40
4934;DHT22;2482;49.154;8.254;2023-06-04T14:01:24;27.00;72.50
4934;DHT22;2482;49.154;8.254;2023-06-04T14:03:53;27.10;69.40
4934;DHT22;2482;49.154;8.254;2023-06-04T14:06:20;27.00;68.40
4934;DHT22;2482;49.154;8.254;2023-06-04T14:08:47;27.20;69.40
4934;DHT22;2482;49.154;8.254;2023-06-04T14:11:14;27.40;66.50
4934;DHT22;2482;49.154;8.254;2023-06-04T14:13:41;27.40;70.70
4934;DHT22;2482;49.154;8.254;2023-06-04T14:16:11;26.90;71.80
4934;DHT22;2482;49.154;8.254;2023-06-04T14:18:38;26.70;71.20
4934;DHT22;2482;49.154;8.254;2023-06-04T14:21:05;26.60;71.90
4934;DHT22;2482;49.154;8.254;2023-06-04T14:23:33;26.50;70.20
4934;DHT22;2482;49.154;8.254;2023-06-04T14:26:00;26.60;72.00
4934;DHT22;2482;49.154;8.254;2023-06-04T14:28:28;26.40;71.60
4934;DHT22;2482;49.154;8.254;2023-06-04T14:30:54;26.40;70.60
4934;DHT22;2482;49.154;8.254;2023-06-04T14:33:22;26.40;72.30
4934;DHT22;2482;49.154;8.254;2023-06-04T14:35:49;26.30;73.60
4934;DHT22;2482;49.154;8.254;2023-06-04T14:38:17;26.10;70.80
4934;DHT22;2482;49.154;8.254;2023-06-04T14:40:44;26.00;74.20
4934;DHT22;2482;49.154;8.254;2023-06-04T14:43:12;26.00;69.30
4934;DHT22;2482;49.154;8.254;2023-06-04T14:45:39;26.20;72.40
4934;DHT22;2482;49.154;8.254;2023-06-04T14:48:07;26.40;76.00
4934;DHT22;2482;49.154;8.254;2023-06-04T14:50:42;26.50;72.50
4934;DHT22;2482;49.154;8.254;2023-06-04T14:53:11;26.20;68.60
4934;DHT22;2482;49.154;8.254;2023-06-04T14:55:38;26.30;68.60
4934;DHT22;2482;49.154;8.254;2023-06-04T14:58:06;26.30;67.90
4934;DHT22;2482;49.154;8.254;2023-06-04T15:00:33;26.40;72.20
4934;DHT22;2482;49.154;8.254;2023-06-04T15:03:00;26.50;68.80
4934;DHT22;2482;49.154;8.254;2023-06-04T15:05:30;26.40;70.80
4934;DHT22;2482;49.154;8.254;2023-06-04T15:07:58;26.60;70.40
4934;DHT22;2482;49.154;8.254;2023-06-04T15:10:26;26.50;67.60
4934;DHT22;2482;49.154;8.254;2023-06-04T15:12:54;26.20;67.80
4934;DHT22;2482;49.154;8.254;2023-06-04T15:15:21;25.90;69.90
4934;DHT22;2482;49.154;8.254;2023-06-04T15:17:49;26.00;67.40
4934;DHT22;2482;49.154;8.254;2023-06-04T15:20:17;26.10;66.10
4934;DHT22;2482;49.154;8.254;2023-06-04T15:22:44;26.10;69.00
4934;DHT22;2482;49.154;8.254;2023-06-04T15:25:11;26.10;66.10
4934;DHT22;2482;49.154;8.254;2023-06-04T15:27:38;26.20;65.90
4934;DHT22;2482;49.154;8.254;2023-06-04T15:30:06;26.10;67.30
4934;DHT22;2482;49.154;8.254;2023-06-04T15:32:33;25.90;67.80
4934;DHT22;2482;49.154;8.254;2023-06-04T15:35:01;26.00;66.10
4934;DHT22;2482;49.154;8.254;2023-06-04T15:37:29;26.10;64.80
4934;DHT22;2482;49.154;8.254;2023-06-04T15:39:56;26.40;67.90
4934;DHT22;2482;49.154;8.254;2023-06-04T15:42:24;26.20;66.10
4934;DHT22;2482;49.154;8.254;2023-06-04T15:44:52;26.00;68.50
4934;DHT22;2482;49.154;8.254;2023-06-04T15:47:19;25.90;66.50
4934;DHT22;2482;49.154;8.254;2023-06-04T15:49:46;25.80;67.10
4934;DHT22;2482;49.154;8.254;2023-06-04T15:52:13;25.90;67.00
4934;DHT22;2482;49.154;8.254;2023-06-04T15:54:40;25.60;66.50
4934;DHT22;2482;49.154;8.254;2023-06-04T15:57:12;25.50;65.80
4934;DHT22;2482;49.154;8.254;2023-06-04T15:59:40;25.70;64.90
4934;DHT22;2482;49.154;8.254;2023-06-04T16:02:07;25.60;65.60
4934;DHT22;2482;49.154;8.254;2023-06-04T16:04:35;25.60;64.60
4934;DHT22;2482;49.154;8.254;2023-06-04T16:07:03;25.50;66.30
4934;DHT22;2482;49.154;8.254;2023-06-04T16:09:31;25.60;66.90
4934;DHT22;2482;49.154;8.254;2023-06-04T16:11:58;25.90;64.50
4934;DHT22;2482;49.154;8.254;2023-06-04T16:14:25;25.90;63.60
4934;DHT22;2482;49.154;8.254;2023-06-04T16:16:52;25.80;65.30
4934;DHT22;2482;49.154;8.254;2023-06-04T16:19:19;25.70;66.20
4934;DHT22;2482;49.154;8.254;2023-06-04T16:21:46;25.70;67.30
4934;DHT22;2482;49.154;8.254;2023-06-04T16:24:14;25.70;63.30
4934;DHT22;2482;49.154;8.254;2023-06-04T16:26:43;25.50;65.20
4934;DHT22;2482;49.154;8.254;2023-06-04T16:29:10;25.50;64.70